Time;durP1;ratioP1;P1;durP2;ratioP2;P2;SDS_P1;SDS_P2;PMS_P1;PMS_P2;Temp;Humidity;BMP_temperature;BMP_pressure;BME280_temperature;BME280_humidity;BME280_pressure;Samples;Min_cycle;Max_cycle;Signal;HPM_P1;HPM_P2
2022/04/04 00:02:30;;;;;;;2.97;1.38;;;19.20;61.80;;;;;;7933288;28;20180;-49
2022/04/04 00:06:16;;;;;;;1.98;1.20;;;19.30;61.50;;;;;;7933608;28;20689;-49
2022/04/04 00:10:02;;;;;;;1.92;1.23;;;19.30;61.80;;;;;;7933335;28;20197;-51
2022/04/04 00:13:47;;;;;;;3.08;1.23;;;19.30;61.80;;;;;;7933350;28;20210;-49
2022/04/04 00:17:33;;;;;;;1.15;0.90;;;19.20;62.30;;;;;;7933012;28;20205;-52
2022/04/04 00:21:18;;;;;;;2.33;1.30;;;19.20;61.50;;;;;;7932587;28;20172;-50
2022/04/04 00:25:05;;;;;;;1.30;1.20;;;19.20;61.70;;;;;;7932570;28;20188;-49
2022/04/04 00:28:50;;;;;;;1.27;1.00;;;19.20;61.70;;;;;;7932649;28;20266;-49
2022/04/04 00:32:37;;;;;;;2.17;1.05;;;19.20;62.10;;;;;;7932067;28;20204;-49
2022/04/04 00:36:22;;;;;;;1.77;1.17;;;19.10;62.00;;;;;;7932605;28;20195;-51
2022/04/04 00:40:08;;;;;;;2.03;1.27;;;19.10;62.10;;;;;;7932010;28;20230;-50
2022/04/04 00:43:54;;;;;;;1.30;1.20;;;19.00;62.60;;;;;;7932086;28;20563;-52
2022/04/04 00:47:39;;;;;;;1.27;1.08;;;19.00;63.00;;;;;;7932115;28;20182;-49
2022/04/04 00:51:25;;;;;;;0.98;0.90;;;18.90;63.00;;;;;;7931459;28;20616;-49
2022/04/04 00:55:11;;;;;;;1.33;1.10;;;18.90;62.90;;;;;;7931406;28;20200;-51
2022/04/04 00:58:57;;;;;;;2.05;1.23;;;18.90;62.40;;;;;;7932258;28;20191;-49
2022/04/04 01:02:42;;;;;;;1.33;1.00;;;18.90;63.10;;;;;;7931982;28;20180;-51
2022/04/04 01:06:28;;;;;;;2.95;0.98;;;18.90;63.40;;;;;;7932059;28;20256;-48
2022/04/04 01:10:13;;;;;;;1.65;1.00;;;18.80;62.90;;;;;;7931602;28;20172;-50
2022/04/04 01:13:59;;;;;;;4.22;1.20;;;18.80;63.10;;;;;;7931970;28;20196;-52
2022/04/04 01:17:45;;;;;;;1.40;0.90;;;18.80;63.70;;;;;;7932174;28;20175;-49
2022/04/04 01:21:31;;;;;;;1.55;1.08;;;18.80;63.50;;;;;;7931524;28;20188;-52
2022/04/04 01:25:23;;;;;;;1.10;0.93;;;18.70;63.70;;;;;;7931649;28;20200;-49
2022/04/04 01:29:08;;;;;;;1.65;1.10;;;18.70;63.50;;;;;;7931403;28;20637;-51
2022/04/04 01:32:54;;;;;;;0.85;0.82;;;18.70;63.30;;;;;;7931427;28;20613;-49
2022/04/04 01:36:39;;;;;;;1.00;0.85;;;18.70;63.50;;;;;;7931365;28;20195;-49
2022/04/04 01:40:25;;;;;;;1.58;1.00;;;18.70;62.90;;;;;;7931192;28;20188;-49
2022/04/04 01:44:11;;;;;;;1.20;1.10;;;18.70;64.00;;;;;;7931176;28;20244;-51
2022/04/04 01:47:56;;;;;;;1.17;1.08;;;18.60;63.60;;;;;;7931274;28;20172;-51
2022/04/04 01:51:42;;;;;;;1.77;1.00;;;18.60;63.70;;;;;;7930747;28;20212;-51
2022/04/04 01:55:27;;;;;;;1.55;1.08;;;18.60;63.90;;;;;;7931312;28;20653;-49
2022/04/04 01:59:13;;;;;;;0.95;0.77;;;18.60;63.60;;;;;;7930861;28;20269;-52
2022/04/04 02:02:58;;;;;;;0.80;0.80;;;18.60;63.40;;;;;;7931350;28;20551;-51
2022/04/04 02:06:44;;;;;;;0.98;0.90;;;18.60;63.20;;;;;;7936611;28;20207;-49
2022/04/04 02:10:30;;;;;;;2.13;0.93;;;18.60;63.00;;;;;;7936373;28;20196;-48
2022/04/04 02:14:15;;;;;;;2.35;0.75;;;18.50;63.10;;;;;;7936356;28;20194;-52
2022/04/04 02:18:01;;;;;;;2.95;0.70;;;18.50;63.50;;;;;;7936628;28;20259;-49
2022/04/04 02:21:46;;;;;;;1.05;0.85;;;18.50;63.70;;;;;;7936083;28;20236;-50
2022/04/04 02:25:32;;;;;;;0.88;0.80;;;18.50;63.50;;;;;;7936225;28;20551;-49
2022/04/04 02:29:17;;;;;;;1.38;1.00;;;18.40;63.50;;;;;;7936022;28;20176;-49
2022/04/04 02:33:03;;;;;;;1.98;0.75;;;18.50;63.10;;;;;;7935835;28;20207;-50
2022/04/04 02:36:48;;;;;;;0.90;0.73;;;18.40;63.20;;;;;;7936194;28;20176;-51
2022/04/04 02:40:34;;;;;;;1.27;0.85;;;18.40;63.00;;;;;;7935706;28;20237;-49
2022/04/04 02:44:20;;;;;;;0.60;0.60;;;18.40;63.30;;;;;;7935728;28;20699;-49
2022/04/04 02:48:06;;;;;;;0.98;0.88;;;18.40;63.40;;;;;;7935672;28;20208;-51
2022/04/04 02:51:52;;;;;;;0.68;0.60;;;18.40;63.30;;;;;;7935239;28;20646;-49
2022/04/04 02:59:42;;;;;;;1.50;0.82;;;18.40;63.40;;;;;;7935917;28;20547;-49
2022/04/04 03:03:28;;;;;;;4.30;0.90;;;18.40;63.10;;;;;;7935176;28;20215;-51
2022/04/04 03:07:13;;;;;;;0.77;0.77;;;18.40;63.50;;;;;;7935086;28;20172;-49
2022/04/04 03:10:58;;;;;;;0.85;0.80;;;18.30;63.40;;;;;;7935223;28;20234;-50
2022/04/04 03:14:44;;;;;;;1.30;0.80;;;18.30;63.30;;;;;;7934529;28;20188;-51
2022/04/04 03:18:30;;;;;;;0.73;0.73;;;18.30;62.90;;;;;;7934614;28;20176;-52
2022/04/04 03:22:15;;;;;;;0.82;0.80;;;18.30;62.40;;;;;;7934263;28;20246;-51
2022/04/04 03:26:01;;;;;;;1.00;0.70;;;18.40;62.40;;;;;;7934308;28;20188;-52
2022/04/04 03:29:46;;;;;;;1.40;0.70;;;18.40;62.00;;;;;;7934004;28;20194;-52
2022/04/04 03:33:33;;;;;;;1.05;0.80;;;18.40;61.70;;;;;;7934011;28;20239;-52
2022/04/04 03:37:19;;;;;;;1.30;0.70;;;18.50;61.70;;;;;;7933919;28;20204;-50
2022/04/04 03:41:04;;;;;;;1.85;0.95;;;18.50;61.50;;;;;;7933608;28;20184;-53
2022/04/04 03:44:50;;;;;;;2.72;1.20;;;18.50;61.30;;;;;;7933675;28;20625;-52
2022/04/04 03:48:35;;;;;;;1.35;0.98;;;18.50;61.10;;;;;;7933673;28;20658;-52
2022/04/04 03:52:21;;;;;;;1.00;0.90;;;18.60;61.10;;;;;;7933159;28;20633;-54
2022/04/04 03:56:07;;;;;;;0.80;0.80;;;18.60;61.10;;;;;;7933386;28;20204;-50
2022/04/04 03:59:53;;;;;;;1.50;1.00;;;18.70;61.00;;;;;;7933141;28;20168;-52
2022/04/04 04:03:39;;;;;;;0.80;0.80;;;18.70;60.90;;;;;;7923299;28;20207;-53
2022/04/04 04:07:25;;;;;;;4.60;0.90;;;18.70;61.00;;;;;;7902043;28;20192;-54
2022/04/04 04:11:12;;;;;;;9.38;1.00;;;18.80;60.90;;;;;;7900585;28;20208;-52
2022/04/04 04:14:58;;;;;;;7.28;1.25;;;18.80;61.30;;;;;;7900441;28;20197;-53
2022/04/04 04:18:44;;;;;;;8.18;1.42;;;18.90;61.50;;;;;;7900324;28;20306;-53
2022/04/04 04:22:30;;;;;;;10.13;1.35;;;18.90;61.40;;;;;;7915918;28;20184;-53
2022/04/04 04:26:15;;;;;;;7.78;1.30;;;18.90;60.80;;;;;;7930597;28;20211;-52
2022/04/04 04:30:03;;;;;;;3.30;1.00;;;19.00;60.40;;;;;;7931069;28;20237;-52
2022/04/04 04:33:48;;;;;;;4.25;1.10;;;19.00;60.50;;;;;;7920936;28;20766;-52
2022/04/04 04:37:34;;;;;;;4.57;1.17;;;19.00;60.50;;;;;;7916590;28;20693;-52
2022/04/04 04:41:19;;;;;;;4.90;1.92;;;19.00;60.50;;;;;;7931075;28;20176;-52
2022/04/04 04:45:06;;;;;;;4.15;1.00;;;19.00;60.40;;;;;;7914031;28;20283;-52
2022/04/04 04:48:52;;;;;;;12.48;1.77;;;19.10;60.40;;;;;;7915696;28;20184;-51
2022/04/04 04:52:38;;;;;;;7.30;1.10;;;19.10;60.60;;;;;;7913270;28;20219;-51
2022/04/04 04:56:25;;;;;;;3.53;1.20;;;19.10;60.20;;;;;;7899517;28;20200;-52
2022/04/04 05:00:13;;;;;;;9.57;1.20;;;19.20;60.20;;;;;;7898961;28;20554;-52
2022/04/04 05:03:58;;;;;;;2.45;1.02;;;19.20;60.10;;;;;;7899256;28;20622;-51
2022/04/04 05:07:44;;;;;;;7.25;1.02;;;19.20;60.20;;;;;;7899294;28;20249;-52
2022/04/04 05:11:29;;;;;;;9.65;1.20;;;19.20;60.10;;;;;;7898943;28;20231;-52
2022/04/04 05:15:16;;;;;;;9.10;1.30;;;19.30;60.70;;;;;;7899358;28;20197;-51
2022/04/04 05:19:03;;;;;;;11.20;1.17;;;19.30;60.90;;;;;;7898996;28;20165;-51
2022/04/04 05:22:48;;;;;;;4.68;1.00;;;19.30;60.20;;;;;;7918292;28;20179;-52
2022/04/04 05:26:34;;;;;;;5.57;1.33;;;19.30;60.00;;;;;;7930577;28;20211;-52
2022/04/04 05:30:20;;;;;;;11.43;1.42;;;19.40;60.00;;;;;;7930015;28;20259;-52
2022/04/04 05:34:05;;;;;;;15.30;1.92;;;19.30;60.00;;;;;;7930595;28;20650;-53
2022/04/04 05:37:54;;;;;;;9.15;1.60;;;19.40;60.10;;;;;;7910488;28;20180;-53
2022/04/04 05:41:40;;;;;;;8.52;1.30;;;19.40;60.00;;;;;;7904627;28;20180;-53
2022/04/04 05:45:26;;;;;;;1.52;1.27;;;19.40;59.90;;;;;;7904982;28;20228;-51
2022/04/04 05:49:12;;;;;;;3.40;1.13;;;19.40;59.80;;;;;;7904292;28;20181;-52
2022/04/04 05:52:57;;;;;;;2.03;1.38;;;19.40;59.70;;;;;;7926096;28;20246;-50
2022/04/04 05:56:45;;;;;;;4.35;1.42;;;19.40;59.60;;;;;;7936184;28;20192;-52
2022/04/04 06:00:31;;;;;;;3.08;1.30;;;19.40;59.50;;;;;;7935734;28;20179;-52
2022/04/04 06:04:16;;;;;;;3.03;1.40;;;19.40;59.50;;;;;;7936011;28;20196;-52
2022/04/04 06:08:02;;;;;;;5.38;1.38;;;19.50;59.50;;;;;;7912721;28;20204;-52
2022/04/04 06:11:47;;;;;;;3.58;1.02;;;19.50;59.50;;;;;;7903599;28;20204;-53
2022/04/04 06:15:33;;;;;;;5.35;1.33;;;19.60;59.50;;;;;;7903914;28;20192;-52
2022/04/04 06:19:19;;;;;;;8.65;1.45;;;19.60;59.50;;;;;;7903592;28;20700;-53
2022/04/04 06:23:06;;;;;;;8.48;1.50;;;19.60;59.80;;;;;;7926514;28;20192;-52
2022/04/04 06:26:51;;;;;;;1.85;1.30;;;19.70;59.60;;;;;;7935275;28;20194;-53
2022/04/04 06:30:37;;;;;;;1.42;1.08;;;19.70;59.60;;;;;;7934699;28;20744;-51
2022/04/04 06:34:24;;;;;;;5.03;1.40;;;19.80;60.40;;;;;;7908017;28;20252;-52
2022/04/04 06:38:10;;;;;;;5.38;1.20;;;19.80;59.70;;;;;;7903132;28;20607;-52
2022/04/04 06:41:56;;;;;;;3.55;1.23;;;19.80;59.70;;;;;;7902601;28;20188;-53
2022/04/04 06:45:41;;;;;;;4.28;1.40;;;19.80;59.60;;;;;;7931504;28;20200;-52
2022/04/04 06:49:27;;;;;;;2.90;1.42;;;19.80;59.70;;;;;;7933724;28;20535;-52
2022/04/04 06:53:13;;;;;;;2.47;1.30;;;19.90;59.70;;;;;;7909841;28;20216;-53
2022/04/04 06:56:59;;;;;;;4.32;1.42;;;19.90;59.60;;;;;;7902813;28;20175;-52
2022/04/04 07:00:45;;;;;;;3.97;1.58;;;19.90;59.60;;;;;;7902152;28;20204;-52
2022/04/04 07:04:30;;;;;;;7.05;1.50;;;19.90;59.80;;;;;;7902479;28;20204;-52
2022/04/04 07:08:16;;;;;;;3.63;1.23;;;19.90;60.00;;;;;;7902281;28;20279;-53
2022/04/04 07:12:03;;;;;;;5.20;1.20;;;20.00;59.80;;;;;;7901941;28;20279;-53
2022/04/04 07:15:49;;;;;;;3.47;1.20;;;20.00;59.80;;;;;;7902183;28;20204;-52
2022/04/04 07:19:34;;;;;;;1.80;1.10;;;20.00;59.80;;;;;;7901619;28;20242;-52
2022/04/04 07:23:21;;;;;;;5.40;1.45;;;20.00;59.90;;;;;;7925527;28;20688;-52
2022/04/04 07:27:06;;;;;;;2.58;1.25;;;20.00;59.80;;;;;;7906112;28;20673;-52
2022/04/04 07:30:53;;;;;;;1.88;1.20;;;20.10;59.90;;;;;;7901606;28;20608;-52
2022/04/04 07:34:40;;;;;;;5.13;1.38;;;20.10;60.00;;;;;;7902200;28;20212;-53
2022/04/04 07:38:25;;;;;;;2.90;1.42;;;20.10;60.00;;;;;;7928670;28;20259;-52
2022/04/04 07:42:12;;;;;;;2.53;1.40;;;20.20;60.90;;;;;;7933052;28;20661;-52
2022/04/04 07:45:58;;;;;;;13.27;1.10;;;20.20;60.00;;;;;;7932961;28;20188;-52
2022/04/04 07:49:43;;;;;;;18.35;1.95;;;20.20;61.50;;;;;;7932455;28;20203;-52
2022/04/04 07:53:29;;;;;;;7.80;0.98;;;20.40;64.40;;;;;;7904678;28;20208;-53
2022/04/04 07:57:15;;;;;;;15.13;1.60;;;20.60;64.80;;;;;;7901088;28;20173;-52
2022/04/04 08:01:01;;;;;;;6.75;1.20;;;20.80;64.70;;;;;;7899816;28;20180;-52
2022/04/04 08:04:47;;;;;;;10.85;1.50;;;21.00;64.70;;;;;;7900742;28;20223;-53
2022/04/04 08:08:32;;;;;;;3.85;0.80;;;21.20;64.40;;;;;;7929174;28;20191;-51
2022/04/04 08:12:18;;;;;;;11.70;1.67;;;21.30;64.20;;;;;;7932047;28;20208;-52
2022/04/04 08:16:04;;;;;;;8.27;1.05;;;21.50;63.90;;;;;;7924612;28;20199;-52
2022/04/04 08:19:50;;;;;;;13.32;1.00;;;21.60;64.10;;;;;;7931506;28;20224;-52
2022/04/04 08:23:35;;;;;;;5.90;1.23;;;21.70;64.00;;;;;;7902408;28;20197;-52
2022/04/04 08:27:22;;;;;;;9.63;1.10;;;21.80;64.00;;;;;;7900095;28;20271;-53
2022/04/04 08:31:07;;;;;;;7.72;1.35;;;21.80;63.90;;;;;;7899365;28;20208;-53
2022/04/04 08:34:53;;;;;;;4.38;1.25;;;21.90;63.80;;;;;;7899962;28;20662;-55
2022/04/04 08:38:39;;;;;;;6.82;1.00;;;22.00;63.90;;;;;;7929776;28;20640;-52
2022/04/04 08:42:27;;;;;;;12.82;0.95;;;21.90;63.90;;;;;;7931164;28;20199;-53
2022/04/04 08:46:14;;;;;;;6.72;0.90;;;21.90;63.80;;;;;;7931487;28;20207;-52
2022/04/04 08:50:01;;;;;;;12.18;0.93;;;21.90;64.10;;;;;;7930882;28;20321;-53
2022/04/04 08:53:46;;;;;;;4.78;1.10;;;21.90;64.20;;;;;;7900120;28;20217;-52
2022/04/04 08:57:32;;;;;;;9.30;1.17;;;21.90;64.30;;;;;;7899762;28;20176;-52
2022/04/04 09:01:23;;;;;;;6.78;1.40;;;21.80;64.30;;;;;;7899240;28;20546;-52
2022/04/04 09:05:09;;;;;;;5.80;0.90;;;21.80;64.40;;;;;;7900572;28;20196;-53
2022/04/04 09:08:56;;;;;;;5.40;1.17;;;21.80;64.50;;;;;;7931303;28;20679;-49
2022/04/04 09:12:41;;;;;;;7.93;1.17;;;21.80;64.50;;;;;;7932466;28;20256;-51
2022/04/04 09:16:27;;;;;;;7.50;1.10;;;21.80;64.50;;;;;;7937043;28;20198;-49
2022/04/04 09:20:16;;;;;;;6.18;1.05;;;21.70;64.50;;;;;;7934828;28;20278;-49
2022/04/04 09:24:07;;;;;;;7.47;1.02;;;21.70;64.50;;;;;;7905110;28;20662;-52
2022/04/04 09:27:52;;;;;;;5.18;0.85;;;21.70;64.50;;;;;;7905345;28;20188;-52
2022/04/04 09:32:05;;;;;;;8.60;1.27;;;21.70;64.50;;;;;;7904609;28;20295;-51
2022/04/04 09:35:52;;;;;;;3.22;0.73;;;21.70;65.40;;;;;;7912524;28;20200;-51
2022/04/04 09:39:37;;;;;;;6.95;0.90;;;21.70;64.40;;;;;;7936097;28;20849;-50
2022/04/04 09:43:23;;;;;;;6.30;0.98;;;21.70;64.30;;;;;;7935973;28;20565;-54
2022/04/04 09:47:09;;;;;;;3.45;0.82;;;21.70;64.10;;;;;;7936472;28;20180;-52
2022/04/04 09:50:54;;;;;;;11.77;1.30;;;21.60;63.80;;;;;;7927336;28;20702;-49
2022/04/04 09:54:43;;;;;;;8.52;1.20;;;21.60;63.80;;;;;;7904737;28;20193;-52
2022/04/04 09:58:30;;;;;;;6.47;0.98;;;21.60;64.00;;;;;;7904776;28;20191;-54
2022/04/04 10:02:16;;;;;;;9.00;0.88;;;21.60;63.90;;;;;;7904024;28;20173;-49
2022/04/04 10:06:08;;;;;;;5.85;1.00;;;21.60;63.90;;;;;;7927134;28;20230;-52
2022/04/04 10:09:54;;;;;;;12.63;1.02;;;21.70;64.10;;;;;;7903590;28;20791;-51
2022/04/04 10:13:42;;;;;;;7.50;0.88;;;21.70;64.00;;;;;;7904037;28;20860;-49
2022/04/04 10:17:29;;;;;;;5.35;0.80;;;21.80;64.00;;;;;;7904087;28;20224;-50
2022/04/04 10:21:14;;;;;;;8.00;0.88;;;21.90;63.70;;;;;;7915477;28;20203;-54
2022/04/04 10:25:02;;;;;;;8.95;0.98;;;22.10;63.80;;;;;;7919090;28;20239;-49
2022/04/04 10:28:48;;;;;;;9.50;1.10;;;22.10;63.60;;;;;;7903764;28;20366;-51
2022/04/04 10:32:34;;;;;;;3.53;0.85;;;22.30;63.50;;;;;;7903244;28;20197;-50
2022/04/04 10:36:24;;;;;;;11.85;0.80;;;22.20;63.60;;;;;;7914608;28;20204;-51
2022/04/04 10:40:24;;;;;;;7.85;1.02;;;22.30;63.70;;;;;;7903339;28;20247;-50
2022/04/04 10:44:10;;;;;;;5.60;1.00;;;22.20;63.70;;;;;;7903816;28;20208;-53
2022/04/04 10:48:04;;;;;;;6.10;0.77;;;22.20;64.00;;;;;;7915877;28;20183;-52
2022/04/04 10:51:50;;;;;;;5.28;0.90;;;22.10;64.10;;;;;;7916389;28;20295;-49
2022/04/04 10:55:36;;;;;;;4.65;0.80;;;22.10;64.30;;;;;;7902805;28;20193;-50
2022/04/04 10:59:21;;;;;;;3.33;0.70;;;22.10;64.50;;;;;;7902319;28;20255;-50
2022/04/04 11:03:11;;;;;;;2.50;0.65;;;22.00;64.50;;;;;;7902677;28;20189;-53
2022/04/04 11:11:19;;;;;;;5.97;1.00;;;21.90;64.80;;;;;;7933849;28;20818;-49
2022/04/04 11:15:07;;;;;;;2.53;0.73;;;21.80;65.00;;;;;;7933765;28;20214;-49
2022/04/04 11:18:53;;;;;;;1.85;0.70;;;21.70;65.10;;;;;;7933639;28;20164;-52
2022/04/04 11:22:43;;;;;;;4.72;0.70;;;21.70;65.20;;;;;;7908427;28;20713;-52
2022/04/04 11:26:29;;;;;;;6.50;0.80;;;21.60;65.30;;;;;;7901709;28;20507;-53
2022/04/04 11:30:20;;;;;;;8.27;0.75;;;21.60;65.20;;;;;;7901065;28;20260;-52
2022/04/04 11:34:12;;;;;;;2.20;0.70;;;21.50;64.80;;;;;;7924622;28;20224;-49
2022/04/04 11:37:59;;;;;;;1.77;0.60;;;21.50;65.00;;;;;;7905789;28;20267;-49
2022/04/04 11:41:53;;;;;;;8.35;0.68;;;21.40;65.20;;;;;;7901289;28;20172;-49
2022/04/04 11:45:42;;;;;;;3.67;0.80;;;21.50;65.20;;;;;;7901755;28;20229;-52
2022/04/04 11:49:35;;;;;;;10.57;0.82;;;21.60;66.10;;;;;;7901378;28;20674;-54
2022/04/04 11:53:22;;;;;;;2.67;0.90;;;21.70;65.10;;;;;;7932328;28;20200;-52
2022/04/04 11:57:09;;;;;;;2.95;0.57;;;21.80;65.00;;;;;;7932984;28;20255;-52
2022/04/04 12:01:04;;;;;;;4.13;0.70;;;21.90;64.90;;;;;;7918439;28;20191;-49
2022/04/04 12:04:50;;;;;;;1.27;0.70;;;22.00;64.60;;;;;;7902559;28;20226;-53
2022/04/04 12:08:42;;;;;;;2.67;0.47;;;22.10;64.70;;;;;;7932179;28;20199;-53
2022/04/04 12:12:33;;;;;;;3.45;0.80;;;22.20;64.50;;;;;;7931746;28;20232;-50
2022/04/04 12:16:19;;;;;;;2.33;1.45;;;22.20;64.40;;;;;;7932056;28;20199;-53
2022/04/04 12:20:11;;;;;;;6.80;1.17;;;22.00;61.80;;;;;;7927359;28;20237;-49
2022/04/04 12:28:04;;;;;;;5.18;1.30;;;21.70;59.10;;;;;;7900670;28;20184;-52
2022/04/04 12:31:55;;;;;;;2.67;0.93;;;21.70;59.20;;;;;;7899331;28;20292;-52
2022/04/04 12:35:41;;;;;;;5.20;0.80;;;21.80;59.80;;;;;;7909595;28;20250;-51
2022/04/04 12:39:27;;;;;;;8.35;1.10;;;21.90;60.10;;;;;;7930832;28;20624;-50
2022/04/04 12:43:12;;;;;;;2.58;1.00;;;22.00;60.60;;;;;;7931408;28;20195;-53
2022/04/04 12:47:24;;;;;;;1.77;0.90;;;22.00;61.00;;;;;;7931042;28;20261;-52
2022/04/04 12:51:25;;;;;;;4.20;0.70;;;22.00;61.30;;;;;;7914686;28;20224;-49
2022/04/04 12:55:12;;;;;;;8.55;0.70;;;21.90;61.60;;;;;;7899626;28;20551;-49
2022/04/04 12:59:03;;;;;;;4.30;0.80;;;21.90;62.00;;;;;;7899307;28;20635;-49
2022/04/04 13:02:48;;;;;;;8.60;0.82;;;21.90;62.30;;;;;;7899341;28;20240;-52
2022/04/04 13:06:34;;;;;;;3.20;0.80;;;21.90;62.40;;;;;;7917143;28;20215;-49
2022/04/04 13:10:24;;;;;;;5.95;1.20;;;21.90;62.60;;;;;;7922776;28;20208;-50
2022/04/04 13:14:10;;;;;;;3.35;0.82;;;21.90;62.70;;;;;;7899243;28;20238;-50
2022/04/04 13:17:55;;;;;;;5.47;0.70;;;22.00;62.80;;;;;;7910248;28;20218;-50
2022/04/04 13:21:43;;;;;;;9.55;1.10;;;21.90;62.80;;;;;;7899900;28;20264;-49
2022/04/04 13:25:30;;;;;;;13.50;1.63;;;21.90;62.90;;;;;;7927362;28;20620;-50
2022/04/04 13:29:17;;;;;;;5.35;0.70;;;21.90;62.90;;;;;;7931230;28;20187;-51
2022/04/04 13:33:02;;;;;;;0.75;0.50;;;21.80;63.90;;;;;;7931509;28;20685;-52
2022/04/04 13:36:48;;;;;;;4.03;0.65;;;21.80;63.10;;;;;;7931472;28;20760;-53
2022/04/04 13:40:33;;;;;;;3.88;0.70;;;21.90;63.00;;;;;;7931000;28;20689;-49
2022/04/04 13:44:19;;;;;;;1.88;0.70;;;22.00;63.00;;;;;;7931166;28;20196;-52
2022/04/04 13:48:04;;;;;;;7.07;0.88;;;22.20;62.80;;;;;;7931317;28;20645;-50
2022/04/04 13:51:50;;;;;;;0.82;0.65;;;22.40;62.70;;;;;;7930914;28;20207;-52
2022/04/04 13:55:36;;;;;;;2.92;0.80;;;22.50;62.40;;;;;;7909624;28;20211;-49
2022/04/04 13:59:21;;;;;;;1.55;0.77;;;22.70;62.30;;;;;;7900062;28;20639;-49
2022/04/04 14:03:07;;;;;;;2.90;0.77;;;22.70;62.10;;;;;;7905386;28;20662;-52
2022/04/04 14:06:53;;;;;;;3.28;1.00;;;22.80;62.10;;;;;;7905263;28;20188;-50
2022/04/04 14:10:41;;;;;;;1.85;0.70;;;22.80;62.10;;;;;;7904890;28;20840;-53
2022/04/04 14:14:30;;;;;;;1.23;0.80;;;22.80;62.20;;;;;;7904949;28;20197;-52
2022/04/04 14:18:16;;;;;;;5.57;0.82;;;22.80;62.20;;;;;;7905188;28;20183;-50
2022/04/04 14:22:02;;;;;;;2.97;0.88;;;22.80;62.30;;;;;;7904776;28;20187;-49
2022/04/04 14:25:48;;;;;;;0.70;0.63;;;22.80;62.40;;;;;;7904884;28;20203;-51
2022/04/04 14:29:33;;;;;;;1.33;0.60;;;22.70;62.40;;;;;;7905012;28;20550;-52
2022/04/04 14:33:19;;;;;;;1.05;0.60;;;22.70;62.50;;;;;;7904883;28;20594;-52
2022/04/04 14:37:05;;;;;;;0.50;0.50;;;22.60;62.60;;;;;;7904557;28;20184;-49
2022/04/04 14:40:50;;;;;;;1.25;0.57;;;22.60;62.70;;;;;;7903845;28;20169;-50
2022/04/04 14:44:36;;;;;;;0.70;0.70;;;22.50;62.80;;;;;;7903967;28;20192;-54
2022/04/04 14:48:22;;;;;;;3.53;0.80;;;22.50;63.00;;;;;;7917916;28;20191;-51
2022/04/04 14:52:08;;;;;;;1.23;0.60;;;22.40;63.00;;;;;;7935075;28;20264;-51
2022/04/04 14:55:55;;;;;;;2.90;0.80;;;22.30;63.10;;;;;;7935388;28;20194;-50
2022/04/04 14:59:41;;;;;;;5.65;0.90;;;22.20;63.40;;;;;;7919405;28;20184;-54
2022/04/04 15:03:27;;;;;;;3.35;0.60;;;22.10;63.50;;;;;;7902216;28;20197;-50
2022/04/04 15:07:14;;;;;;;7.45;1.10;;;22.10;63.50;;;;;;7903289;28;20169;-49
2022/04/04 15:10:59;;;;;;;8.02;0.90;;;21.90;63.50;;;;;;7903337;28;20228;-50
2022/04/04 15:14:46;;;;;;;6.13;1.08;;;21.90;63.50;;;;;;7903356;28;20200;-49
2022/04/04 15:18:32;;;;;;;16.27;1.00;;;21.90;63.50;;;;;;7903087;28;20248;-50
2022/04/04 15:22:17;;;;;;;7.30;1.40;;;21.80;63.70;;;;;;7902812;28;20249;-49
2022/04/04 15:26:03;;;;;;;3.80;0.88;;;21.80;64.60;;;;;;7902560;28;20196;-50
2022/04/04 15:29:48;;;;;;;4.32;0.80;;;21.80;63.60;;;;;;7902542;28;20177;-51
2022/04/04 15:33:34;;;;;;;6.63;1.30;;;21.80;63.50;;;;;;7902949;28;20299;-50
2022/04/04 15:37:19;;;;;;;4.85;1.10;;;21.90;63.50;;;;;;7902811;28;20543;-50
2022/04/04 15:41:05;;;;;;;8.55;0.90;;;21.90;63.40;;;;;;7902354;28;20212;-52
2022/04/04 15:44:53;;;;;;;3.17;0.98;;;21.90;63.20;;;;;;7902760;28;20213;-49
2022/04/04 15:48:38;;;;;;;5.53;0.73;;;21.90;63.10;;;;;;7903105;28;20216;-49
2022/04/04 15:52:24;;;;;;;1.13;0.75;;;21.90;63.10;;;;;;7902091;28;20227;-50
2022/04/04 15:56:09;;;;;;;1.60;0.73;;;21.90;63.00;;;;;;7902438;28;20262;-50
2022/04/04 15:59:55;;;;;;;4.38;0.82;;;21.90;63.10;;;;;;7901869;28;20184;-51
2022/04/04 16:03:45;;;;;;;2.28;0.70;;;21.90;63.10;;;;;;7901699;28;20208;-49
2022/04/04 16:07:30;;;;;;;1.38;0.70;;;21.80;63.10;;;;;;7901569;28;20264;-52
2022/04/04 16:11:17;;;;;;;0.80;0.60;;;21.80;63.20;;;;;;7901402;28;20227;-50
2022/04/04 16:15:04;;;;;;;0.82;0.82;;;21.80;63.30;;;;;;7901254;28;20203;-50
2022/04/04 16:18:49;;;;;;;3.15;0.80;;;21.90;63.20;;;;;;7901178;28;20212;-49
2022/04/04 16:22:35;;;;;;;2.15;0.80;;;22.00;63.20;;;;;;7900264;28;20183;-53
2022/04/04 16:26:22;;;;;;;2.13;0.75;;;22.10;63.90;;;;;;7900999;28;20197;-50
2022/04/04 16:30:09;;;;;;;0.82;0.60;;;22.20;63.00;;;;;;7900727;28;20173;-51
2022/04/04 16:33:54;;;;;;;0.98;0.80;;;22.40;62.80;;;;;;7900683;28;20201;-51
2022/04/04 16:37:40;;;;;;;2.05;0.68;;;22.40;62.70;;;;;;7900695;28;20179;-51
2022/04/04 16:41:26;;;;;;;0.68;0.63;;;22.50;62.60;;;;;;7906051;28;20598;-52
2022/04/04 16:45:11;;;;;;;1.50;0.70;;;22.60;62.60;;;;;;7923219;28;20195;-52
2022/04/04 16:48:57;;;;;;;1.48;0.88;;;22.60;62.60;;;;;;7912255;28;20184;-52
2022/04/04 16:52:43;;;;;;;1.13;0.80;;;22.60;62.70;;;;;;7900099;28;20287;-53
2022/04/04 16:56:29;;;;;;;5.05;1.00;;;22.70;62.70;;;;;;7900668;28;20232;-49
2022/04/04 17:00:15;;;;;;;3.45;1.08;;;22.70;62.70;;;;;;7900551;28;20194;-50
2022/04/04 17:04:04;;;;;;;4.38;0.90;;;22.70;62.70;;;;;;7900609;28;20207;-52
2022/04/04 17:07:50;;;;;;;2.65;0.90;;;22.70;62.70;;;;;;7900533;28;20169;-49
2022/04/04 17:11:35;;;;;;;7.70;1.02;;;22.60;62.90;;;;;;7903126;28;20210;-54
2022/04/04 17:15:22;;;;;;;26.58;1.55;;;22.60;62.80;;;;;;7912402;28;20220;-49
2022/04/04 17:19:08;;;;;;;17.50;1.40;;;22.60;63.10;;;;;;7900181;28;20326;-50
2022/04/04 17:22:53;;;;;;;10.80;1.70;;;22.50;63.20;;;;;;7900087;28;20173;-51
2022/04/04 17:26:40;;;;;;;9.40;1.10;;;22.50;63.50;;;;;;7899986;28;20694;-50
2022/04/04 17:30:26;;;;;;;10.48;1.63;;;22.50;63.80;;;;;;7899987;28;20207;-51
2022/04/04 17:34:14;;;;;;;8.80;1.20;;;22.50;63.80;;;;;;7902167;28;20295;-52
2022/04/04 17:38:00;;;;;;;8.63;1.27;;;22.40;64.00;;;;;;7906349;28;20169;-49
2022/04/04 17:41:46;;;;;;;6.80;1.30;;;22.40;64.20;;;;;;7922275;28;20180;-49
2022/04/04 17:45:31;;;;;;;11.85;1.30;;;22.40;64.20;;;;;;7920216;28;20597;-49
2022/04/04 17:49:17;;;;;;;7.60;1.30;;;22.30;64.40;;;;;;7921026;28;20275;-51
2022/04/04 17:53:03;;;;;;;6.70;1.10;;;22.30;64.50;;;;;;7917603;28;20262;-49
2022/04/04 17:56:50;;;;;;;7.90;1.15;;;22.20;64.70;;;;;;7918004;28;20577;-50
2022/04/04 18:00:36;;;;;;;4.97;0.95;;;22.20;64.80;;;;;;7918185;28;20193;-49
2022/04/04 18:04:23;;;;;;;8.93;1.17;;;22.20;65.00;;;;;;7908067;28;20689;-49
2022/04/04 18:08:11;;;;;;;12.30;1.40;;;22.10;65.20;;;;;;7905635;28;20191;-51
2022/04/04 18:11:57;;;;;;;10.70;1.58;;;22.10;65.20;;;;;;7905022;28;20204;-50
2022/04/04 18:15:43;;;;;;;7.82;1.10;;;22.10;65.40;;;;;;7905350;28;20567;-49
2022/04/04 18:19:28;;;;;;;6.30;1.20;;;22.00;65.40;;;;;;7905388;28;20208;-52
2022/04/04 18:23:14;;;;;;;2.33;0.95;;;22.00;65.50;;;;;;7905262;28;20203;-49
2022/04/04 18:27:00;;;;;;;12.25;1.40;;;22.00;65.50;;;;;;7903817;28;20543;-50
2022/04/04 18:30:45;;;;;;;13.77;1.20;;;22.00;65.40;;;;;;7904345;28;20674;-50
2022/04/04 18:34:32;;;;;;;12.20;1.58;;;22.00;65.60;;;;;;7904366;28;20269;-49
2022/04/04 18:38:17;;;;;;;17.77;1.65;;;22.00;65.60;;;;;;7904463;28;20670;-51
2022/04/04 18:42:03;;;;;;;8.30;1.13;;;22.00;65.50;;;;;;7903933;28;20538;-49
2022/04/04 18:45:49;;;;;;;9.48;1.60;;;22.00;65.30;;;;;;7903308;28;20609;-50
2022/04/04 18:49:35;;;;;;;12.88;1.75;;;22.10;65.50;;;;;;7903690;28;20220;-52
2022/04/04 18:53:21;;;;;;;8.82;1.77;;;22.20;65.70;;;;;;7903649;28;20204;-52
2022/04/04 18:57:08;;;;;;;15.15;1.60;;;22.10;65.60;;;;;;7933195;28;20590;-53
2022/04/04 19:00:53;;;;;;;17.10;1.85;;;22.10;66.80;;;;;;7935289;28;20186;-50
2022/04/04 19:04:40;;;;;;;15.50;1.40;;;22.00;67.60;;;;;;7935122;28;20674;-50
2022/04/04 19:08:26;;;;;;;11.48;1.40;;;22.10;67.80;;;;;;7935265;28;20164;-49
2022/04/04 19:12:11;;;;;;;19.35;1.40;;;22.10;67.90;;;;;;7918570;28;20678;-50
2022/04/04 19:15:57;;;;;;;7.85;1.13;;;22.10;68.00;;;;;;7903430;28;20685;-49
2022/04/04 19:19:43;;;;;;;7.20;1.45;;;22.10;68.20;;;;;;7939048;27;20269;-52
2022/04/04 19:23:29;;;;;;;7.18;1.05;;;22.00;68.40;;;;;;7964157;27;20219;-49
2022/04/04 19:27:16;;;;;;;8.27;1.40;;;22.00;68.50;;;;;;7950666;27;20192;-51
2022/04/04 19:31:03;;;;;;;7.75;1.20;;;22.00;68.70;;;;;;7933184;28;20172;-49
2022/04/04 19:34:48;;;;;;;7.45;1.23;;;22.00;68.80;;;;;;7913517;28;20253;-51
2022/04/04 19:38:34;;;;;;;5.97;1.33;;;21.90;68.80;;;;;;7901726;28;20177;-50
2022/04/04 19:42:19;;;;;;;2.58;1.40;;;21.90;68.80;;;;;;7901596;28;20176;-49
2022/04/04 19:46:05;;;;;;;7.28;1.30;;;21.80;69.00;;;;;;7901595;28;20200;-51
2022/04/04 19:49:51;;;;;;;6.72;1.20;;;21.80;69.10;;;;;;7900950;28;20307;-49